sensor_id;sensor_type;location;lat;lon;timestamp;P1;durP1;ratioP1;P2;durP2;ratioP2
15331;SDS011;7766;51.534;6.722;2023-04-24T00:00:59;2.33;;;1.10;;
15331;SDS011;7766;51.534;6.722;2023-04-24T00:02:01;2.13;;;0.93;;
15331;SDS011;7766;51.534;6.722;2023-04-24T00:03:03;1.20;;;0.90;;
15331;SDS011;7766;51.534;6.722;2023-04-24T00:04:04;2.77;;;1.03;;
15331;SDS011;7766;51.534;6.722;2023-04-24T00:05:07;2.03;;;1.00;;
15331;SDS011;7766;51.534;6.722;2023-04-24T00:06:08;2.77;;;1.17;;
15331;SDS011;7766;51.534;6.722;2023-04-24T00:07:10;1.50;;;1.20;;
15331;SDS011;7766;51.534;6.722;2023-04-24T00:08:12;2.57;;;1.20;;
15331;SDS011;7766;51.534;6.722;2023-04-24T00:09:13;1.10;;;0.90;;
15331;SDS011;7766;51.534;6.722;2023-04-24T00:10:15;1.30;;;1.20;;
15331;SDS011;7766;51.534;6.722;2023-04-24T00:11:16;2.03;;;1.00;;
15331;SDS011;7766;51.534;6.722;2023-04-24T00:12:17;3.83;;;1.43;;
15331;SDS011;7766;51.534;6.722;2023-04-24T00:13:19;1.73;;;1.20;;
15331;SDS011;7766;51.534;6.722;2023-04-24T00:14:19;1.70;;;1.30;;
15331;SDS011;7766;51.534;6.722;2023-04-24T00:15:20;1.50;;;1.30;;
15331;SDS011;7766;51.534;6.722;2023-04-24T00:16:22;1.70;;;1.30;;
15331;SDS011;7766;51.534;6.722;2023-04-24T00:17:23;4.13;;;1.63;;
15331;SDS011;7766;51.534;6.722;2023-04-24T00:18:24;2.97;;;1.40;;
15331;SDS011;7766;51.534;6.722;2023-04-24T00:19:25;4.13;;;2.13;;
15331;SDS011;7766;51.534;6.722;2023-04-24T00:20:26;2.57;;;1.73;;
15331;SDS011;7766;51.534;6.722;2023-04-24T00:21:29;2.13;;;1.60;;
15331;SDS011;7766;51.534;6.722;2023-04-24T00:22:32;4.33;;;2.40;;
15331;SDS011;7766;51.534;6.722;2023-04-24T00:23:34;6.23;;;3.33;;
15331;SDS011;7766;51.534;6.722;2023-04-24T00:24:35;7.57;;;4.83;;
15331;SDS011;7766;51.534;6.722;2023-04-24T00:25:36;3.33;;;2.10;;
15331;SDS011;7766;51.534;6.722;2023-04-24T00:26:37;2.67;;;1.70;;
15331;SDS011;7766;51.534;6.722;2023-04-24T00:27:37;3.33;;;1.40;;
15331;SDS011;7766;51.534;6.722;2023-04-24T00:28:38;3.93;;;1.60;;
15331;SDS011;7766;51.534;6.722;2023-04-24T00:29:39;3.47;;;1.57;;
15331;SDS011;7766;51.534;6.722;2023-04-24T00:30:40;3.13;;;1.80;;
15331;SDS011;7766;51.534;6.722;2023-04-24T00:31:41;3.30;;;1.90;;
15331;SDS011;7766;51.534;6.722;2023-04-24T00:32:42;1.53;;;1.43;;
15331;SDS011;7766;51.534;6.722;2023-04-24T00:33:43;2.23;;;1.60;;
15331;SDS011;7766;51.534;6.722;2023-04-24T00:34:44;2.70;;;1.77;;
15331;SDS011;7766;51.534;6.722;2023-04-24T00:35:45;2.97;;;1.70;;
15331;SDS011;7766;51.534;6.722;2023-04-24T00:36:46;1.87;;;1.70;;
15331;SDS011;7766;51.534;6.722;2023-04-24T00:37:49;2.97;;;1.83;;
15331;SDS011;7766;51.534;6.722;2023-04-24T00:38:50;2.23;;;1.90;;
15331;SDS011;7766;51.534;6.722;2023-04-24T00:39:50;2.77;;;1.60;;
15331;SDS011;7766;51.534;6.722;2023-04-24T00:40:52;2.73;;;1.97;;
15331;SDS011;7766;51.534;6.722;2023-04-24T00:41:54;2.40;;;2.07;;
15331;SDS011;7766;51.534;6.722;2023-04-24T00:42:56;7.87;;;2.00;;
15331;SDS011;7766;51.534;6.722;2023-04-24T00:43:57;4.80;;;1.80;;
15331;SDS011;7766;51.534;6.722;2023-04-24T00:44:58;2.87;;;1.83;;
15331;SDS011;7766;51.534;6.722;2023-04-24T00:46:01;2.60;;;1.63;;
15331;SDS011;7766;51.534;6.722;2023-04-24T00:47:03;2.20;;;2.00;;
15331;SDS011;7766;51.534;6.722;2023-04-24T00:48:04;2.70;;;1.90;;
15331;SDS011;7766;51.534;6.722;2023-04-24T00:49:06;3.03;;;2.17;;
15331;SDS011;7766;51.534;6.722;2023-04-24T00:50:07;2.90;;;1.90;;
15331;SDS011;7766;51.534;6.722;2023-04-24T00:51:09;3.67;;;1.93;;
15331;SDS011;7766;51.534;6.722;2023-04-24T00:52:10;4.60;;;2.57;;
15331;SDS011;7766;51.534;6.722;2023-04-24T00:53:12;4.07;;;2.40;;
15331;SDS011;7766;51.534;6.722;2023-04-24T00:54:13;4.50;;;1.80;;
15331;SDS011;7766;51.534;6.722;2023-04-24T00:55:14;3.17;;;1.90;;
15331;SDS011;7766;51.534;6.722;2023-04-24T00:56:15;2.67;;;2.00;;
15331;SDS011;7766;51.534;6.722;2023-04-24T00:57:17;3.03;;;2.40;;
15331;SDS011;7766;51.534;6.722;2023-04-24T00:58:18;5.13;;;2.60;;
15331;SDS011;7766;51.534;6.722;2023-04-24T00:59:19;5.77;;;2.93;;
15331;SDS011;7766;51.534;6.722;2023-04-24T01:00:21;3.00;;;2.40;;
15331;SDS011;7766;51.534;6.722;2023-04-24T01:01:22;2.67;;;1.73;;
15331;SDS011;7766;51.534;6.722;2023-04-24T01:02:23;2.50;;;2.30;;
15331;SDS011;7766;51.534;6.722;2023-04-24T01:03:25;5.33;;;3.00;;
15331;SDS011;7766;51.534;6.722;2023-04-24T01:04:28;3.10;;;2.50;;
15331;SDS011;7766;51.534;6.722;2023-04-24T01:05:30;2.97;;;2.67;;
15331;SDS011;7766;51.534;6.722;2023-04-24T01:06:31;4.53;;;2.77;;
15331;SDS011;7766;51.534;6.722;2023-04-24T01:07:32;3.97;;;2.63;;
15331;SDS011;7766;51.534;6.722;2023-04-24T01:08:34;3.90;;;3.00;;
15331;SDS011;7766;51.534;6.722;2023-04-24T01:09:38;2.97;;;2.67;;
15331;SDS011;7766;51.534;6.722;2023-04-24T01:10:43;3.40;;;3.00;;
15331;SDS011;7766;51.534;6.722;2023-04-24T01:11:46;2.90;;;2.60;;
15331;SDS011;7766;51.534;6.722;2023-04-24T01:12:46;3.47;;;2.90;;
15331;SDS011;7766;51.534;6.722;2023-04-24T01:13:48;6.43;;;2.93;;
15331;SDS011;7766;51.534;6.722;2023-04-24T01:14:49;4.47;;;2.67;;
15331;SDS011;7766;51.534;6.722;2023-04-24T01:15:50;3.67;;;3.07;;
15331;SDS011;7766;51.534;6.722;2023-04-24T01:16:51;5.47;;;3.03;;
15331;SDS011;7766;51.534;6.722;2023-04-24T01:17:52;3.60;;;3.20;;
15331;SDS011;7766;51.534;6.722;2023-04-24T01:18:53;3.67;;;3.10;;
15331;SDS011;7766;51.534;6.722;2023-04-24T01:19:54;4.20;;;3.10;;
15331;SDS011;7766;51.534;6.722;2023-04-24T01:20:57;5.57;;;3.47;;
15331;SDS011;7766;51.534;6.722;2023-04-24T01:21:59;7.07;;;4.47;;
15331;SDS011;7766;51.534;6.722;2023-04-24T01:23:02;4.67;;;3.33;;
15331;SDS011;7766;51.534;6.722;2023-04-24T01:24:04;6.70;;;3.53;;
15331;SDS011;7766;51.534;6.722;2023-04-24T01:25:06;4.87;;;3.53;;
15331;SDS011;7766;51.534;6.722;2023-04-24T01:26:07;7.83;;;3.90;;
15331;SDS011;7766;51.534;6.722;2023-04-24T01:27:10;4.87;;;3.23;;
15331;SDS011;7766;51.534;6.722;2023-04-24T01:28:11;5.90;;;3.77;;
15331;SDS011;7766;51.534;6.722;2023-04-24T01:29:14;4.17;;;3.27;;
15331;SDS011;7766;51.534;6.722;2023-04-24T01:30:15;4.87;;;3.90;;
15331;SDS011;7766;51.534;6.722;2023-04-24T01:31:16;4.57;;;3.40;;
15331;SDS011;7766;51.534;6.722;2023-04-24T01:32:17;4.87;;;3.90;;
15331;SDS011;7766;51.534;6.722;2023-04-24T01:33:19;4.83;;;3.73;;
15331;SDS011;7766;51.534;6.722;2023-04-24T01:34:21;5.67;;;4.23;;
15331;SDS011;7766;51.534;6.722;2023-04-24T01:35:22;7.00;;;4.80;;
15331;SDS011;7766;51.534;6.722;2023-04-24T01:36:24;5.43;;;4.00;;
15331;SDS011;7766;51.534;6.722;2023-04-24T01:37:27;5.23;;;4.43;;
15331;SDS011;7766;51.534;6.722;2023-04-24T01:38:28;6.53;;;4.40;;
15331;SDS011;7766;51.534;6.722;2023-04-24T01:39:29;6.87;;;4.50;;
15331;SDS011;7766;51.534;6.722;2023-04-24T01:40:30;4.30;;;3.70;;
15331;SDS011;7766;51.534;6.722;2023-04-24T01:41:31;7.03;;;4.33;;
15331;SDS011;7766;51.534;6.722;2023-04-24T01:42:34;7.87;;;4.70;;
15331;SDS011;7766;51.534;6.722;2023-04-24T01:43:35;4.90;;;4.40;;
15331;SDS011;7766;51.534;6.722;2023-04-24T01:44:36;6.13;;;4.33;;
15331;SDS011;7766;51.534;6.722;2023-04-24T01:45:37;7.47;;;4.60;;
15331;SDS011;7766;51.534;6.722;2023-04-24T01:46:39;5.90;;;4.23;;
15331;SDS011;7766;51.534;6.722;2023-04-24T01:47:40;7.80;;;4.70;;
15331;SDS011;7766;51.534;6.722;2023-04-24T01:48:41;9.10;;;4.90;;
15331;SDS011;7766;51.534;6.722;2023-04-24T01:49:44;7.63;;;4.57;;
15331;SDS011;7766;51.534;6.722;2023-04-24T01:50:48;10.97;;;5.33;;
15331;SDS011;7766;51.534;6.722;2023-04-24T01:51:49;6.33;;;5.03;;
15331;SDS011;7766;51.534;6.722;2023-04-24T01:52:49;5.37;;;4.23;;
15331;SDS011;7766;51.534;6.722;2023-04-24T01:53:50;7.07;;;4.70;;
15331;SDS011;7766;51.534;6.722;2023-04-24T01:54:52;7.00;;;4.63;;
15331;SDS011;7766;51.534;6.722;2023-04-24T01:55:53;7.60;;;4.77;;
15331;SDS011;7766;51.534;6.722;2023-04-24T01:56:54;7.67;;;4.90;;
15331;SDS011;7766;51.534;6.722;2023-04-24T01:57:55;6.60;;;4.50;;
15331;SDS011;7766;51.534;6.722;2023-04-24T01:58:57;9.47;;;4.67;;
15331;SDS011;7766;51.534;6.722;2023-04-24T01:59:59;7.00;;;5.33;;
15331;SDS011;7766;51.534;6.722;2023-04-24T02:01:00;9.23;;;5.10;;
15331;SDS011;7766;51.534;6.722;2023-04-24T02:02:02;7.23;;;5.27;;
15331;SDS011;7766;51.534;6.722;2023-04-24T02:03:03;5.93;;;4.90;;
15331;SDS011;7766;51.534;6.722;2023-04-24T02:04:04;7.43;;;5.97;;
15331;SDS011;7766;51.534;6.722;2023-04-24T02:05:07;8.63;;;5.40;;
15331;SDS011;7766;51.534;6.722;2023-04-24T02:06:09;6.17;;;4.47;;
15331;SDS011;7766;51.534;6.722;2023-04-24T02:07:10;5.50;;;4.97;;
15331;SDS011;7766;51.534;6.722;2023-04-24T02:08:11;9.43;;;4.70;;
15331;SDS011;7766;51.534;6.722;2023-04-24T02:09:12;6.73;;;4.67;;
15331;SDS011;7766;51.534;6.722;2023-04-24T02:10:13;10.57;;;5.20;;
15331;SDS011;7766;51.534;6.722;2023-04-24T02:11:14;7.43;;;4.80;;
15331;SDS011;7766;51.534;6.722;2023-04-24T02:12:15;6.20;;;5.13;;
15331;SDS011;7766;51.534;6.722;2023-04-24T02:13:17;7.73;;;5.27;;
15331;SDS011;7766;51.534;6.722;2023-04-24T02:14:18;10.20;;;5.70;;
15331;SDS011;7766;51.534;6.722;2023-04-24T02:15:19;6.33;;;4.47;;
15331;SDS011;7766;51.534;6.722;2023-04-24T02:16:20;6.73;;;4.97;;
15331;SDS011;7766;51.534;6.722;2023-04-24T02:17:21;7.20;;;4.70;;
15331;SDS011;7766;51.534;6.722;2023-04-24T02:18:22;7.07;;;4.50;;
15331;SDS011;7766;51.534;6.722;2023-04-24T02:19:23;7.17;;;4.87;;
15331;SDS011;7766;51.534;6.722;2023-04-24T02:20:24;6.80;;;4.07;;
15331;SDS011;7766;51.534;6.722;2023-04-24T02:21:25;6.33;;;5.30;;
15331;SDS011;7766;51.534;6.722;2023-04-24T02:22:27;7.30;;;5.67;;
15331;SDS011;7766;51.534;6.722;2023-04-24T02:23:28;7.57;;;4.87;;
15331;SDS011;7766;51.534;6.722;2023-04-24T02:24:29;7.17;;;5.13;;
15331;SDS011;7766;51.534;6.722;2023-04-24T02:25:30;11.53;;;5.33;;
15331;SDS011;7766;51.534;6.722;2023-04-24T02:26:31;7.33;;;5.00;;
15331;SDS011;7766;51.534;6.722;2023-04-24T02:27:32;6.67;;;5.80;;
15331;SDS011;7766;51.534;6.722;2023-04-24T02:28:33;8.53;;;5.50;;
15331;SDS011;7766;51.534;6.722;2023-04-24T02:29:34;6.70;;;5.70;;
15331;SDS011;7766;51.534;6.722;2023-04-24T02:30:35;8.43;;;6.17;;
15331;SDS011;7766;51.534;6.722;2023-04-24T02:31:36;9.57;;;6.37;;
15331;SDS011;7766;51.534;6.722;2023-04-24T02:32:37;8.30;;;5.93;;
15331;SDS011;7766;51.534;6.722;2023-04-24T02:33:38;8.10;;;6.03;;
15331;SDS011;7766;51.534;6.722;2023-04-24T02:34:40;8.60;;;5.97;;
15331;SDS011;7766;51.534;6.722;2023-04-24T02:35:41;9.17;;;6.73;;
15331;SDS011;7766;51.534;6.722;2023-04-24T02:36:42;10.20;;;7.07;;
15331;SDS011;7766;51.534;6.722;2023-04-24T02:37:43;10.77;;;6.47;;
15331;SDS011;7766;51.534;6.722;2023-04-24T02:38:44;8.00;;;5.93;;
15331;SDS011;7766;51.534;6.722;2023-04-24T02:39:45;9.37;;;6.40;;
15331;SDS011;7766;51.534;6.722;2023-04-24T02:40:46;8.73;;;6.60;;
15331;SDS011;7766;51.534;6.722;2023-04-24T02:41:47;12.30;;;6.93;;
15331;SDS011;7766;51.534;6.722;2023-04-24T02:42:48;9.40;;;7.13;;
15331;SDS011;7766;51.534;6.722;2023-04-24T02:43:49;9.23;;;6.67;;
15331;SDS011;7766;51.534;6.722;2023-04-24T02:44:50;12.00;;;7.23;;
15331;SDS011;7766;51.534;6.722;2023-04-24T02:45:51;9.87;;;7.20;;
15331;SDS011;7766;51.534;6.722;2023-04-24T02:46:52;9.53;;;6.57;;
15331;SDS011;7766;51.534;6.722;2023-04-24T02:47:53;8.70;;;7.60;;
15331;SDS011;7766;51.534;6.722;2023-04-24T02:48:54;10.60;;;7.60;;
15331;SDS011;7766;51.534;6.722;2023-04-24T02:49:55;8.93;;;6.97;;
15331;SDS011;7766;51.534;6.722;2023-04-24T02:50:56;9.83;;;6.70;;
15331;SDS011;7766;51.534;6.722;2023-04-24T02:51:57;10.40;;;7.63;;
15331;SDS011;7766;51.534;6.722;2023-04-24T02:52:58;12.47;;;7.43;;
15331;SDS011;7766;51.534;6.722;2023-04-24T02:53:59;10.40;;;7.70;;
15331;SDS011;7766;51.534;6.722;2023-04-24T02:55:00;12.37;;;7.93;;
15331;SDS011;7766;51.534;6.722;2023-04-24T02:56:01;12.17;;;7.27;;
15331;SDS011;7766;51.534;6.722;2023-04-24T02:57:02;10.97;;;8.13;;
15331;SDS011;7766;51.534;6.722;2023-04-24T02:58:03;13.50;;;8.07;;
15331;SDS011;7766;51.534;6.722;2023-04-24T02:59:04;10.40;;;8.30;;
15331;SDS011;7766;51.534;6.722;2023-04-24T03:00:05;11.17;;;7.93;;
15331;SDS011;7766;51.534;6.722;2023-04-24T03:01:07;12.83;;;8.10;;
15331;SDS011;7766;51.534;6.722;2023-04-24T03:02:09;11.13;;;8.83;;
15331;SDS011;7766;51.534;6.722;2023-04-24T03:03:11;13.77;;;7.20;;
15331;SDS011;7766;51.534;6.722;2023-04-24T03:04:11;10.67;;;7.60;;
15331;SDS011;7766;51.534;6.722;2023-04-24T03:05:13;11.17;;;7.90;;
15331;SDS011;7766;51.534;6.722;2023-04-24T03:06:14;13.47;;;8.90;;
15331;SDS011;7766;51.534;6.722;2023-04-24T03:07:15;11.20;;;8.50;;
15331;SDS011;7766;51.534;6.722;2023-04-24T03:08:16;11.93;;;8.43;;
15331;SDS011;7766;51.534;6.722;2023-04-24T03:09:17;12.37;;;8.57;;
15331;SDS011;7766;51.534;6.722;2023-04-24T03:10:18;14.87;;;8.53;;
15331;SDS011;7766;51.534;6.722;2023-04-24T03:11:19;11.33;;;8.07;;
15331;SDS011;7766;51.534;6.722;2023-04-24T03:12:20;14.03;;;9.53;;
15331;SDS011;7766;51.534;6.722;2023-04-24T03:13:23;11.33;;;8.07;;
15331;SDS011;7766;51.534;6.722;2023-04-24T03:14:24;12.77;;;8.47;;
15331;SDS011;7766;51.534;6.722;2023-04-24T03:15:25;14.97;;;8.60;;
15331;SDS011;7766;51.534;6.722;2023-04-24T03:16:27;15.67;;;9.03;;
15331;SDS011;7766;51.534;6.722;2023-04-24T03:17:28;11.13;;;8.87;;
15331;SDS011;7766;51.534;6.722;2023-04-24T03:18:29;10.47;;;6.80;;
15331;SDS011;7766;51.534;6.722;2023-04-24T03:19:30;15.27;;;8.97;;
15331;SDS011;7766;51.534;6.722;2023-04-24T03:20:31;13.53;;;8.70;;
15331;SDS011;7766;51.534;6.722;2023-04-24T03:21:32;12.23;;;8.87;;
15331;SDS011;7766;51.534;6.722;2023-04-24T03:22:34;11.47;;;7.77;;
15331;SDS011;7766;51.534;6.722;2023-04-24T03:23:35;14.57;;;8.63;;
15331;SDS011;7766;51.534;6.722;2023-04-24T03:24:36;14.03;;;8.80;;
15331;SDS011;7766;51.534;6.722;2023-04-24T03:25:37;15.13;;;9.60;;
15331;SDS011;7766;51.534;6.722;2023-04-24T03:26:38;16.47;;;9.00;;
15331;SDS011;7766;51.534;6.722;2023-04-24T03:27:39;12.93;;;8.87;;
15331;SDS011;7766;51.534;6.722;2023-04-24T03:28:41;13.50;;;9.40;;
15331;SDS011;7766;51.534;6.722;2023-04-24T03:29:42;14.57;;;9.53;;
15331;SDS011;7766;51.534;6.722;2023-04-24T03:30:43;13.63;;;8.73;;
15331;SDS011;7766;51.534;6.722;2023-04-24T03:31:44;12.57;;;8.80;;
15331;SDS011;7766;51.534;6.722;2023-04-24T03:32:45;13.03;;;9.03;;
15331;SDS011;7766;51.534;6.722;2023-04-24T03:33:46;13.80;;;8.87;;
15331;SDS011;7766;51.534;6.722;2023-04-24T03:34:47;15.60;;;9.03;;
15331;SDS011;7766;51.534;6.722;2023-04-24T03:35:48;14.50;;;9.40;;
15331;SDS011;7766;51.534;6.722;2023-04-24T03:36:49;15.63;;;9.17;;
15331;SDS011;7766;51.534;6.722;2023-04-24T03:37:50;16.77;;;9.40;;
15331;SDS011;7766;51.534;6.722;2023-04-24T03:38:51;14.30;;;8.63;;
15331;SDS011;7766;51.534;6.722;2023-04-24T03:39:52;14.20;;;9.30;;
15331;SDS011;7766;51.534;6.722;2023-04-24T03:40:53;14.53;;;8.63;;
15331;SDS011;7766;51.534;6.722;2023-04-24T03:41:54;16.17;;;9.40;;
15331;SDS011;7766;51.534;6.722;2023-04-24T03:42:55;13.23;;;8.50;;
15331;SDS011;7766;51.534;6.722;2023-04-24T03:43:56;19.87;;;9.80;;
15331;SDS011;7766;51.534;6.722;2023-04-24T03:44:57;12.80;;;9.37;;
15331;SDS011;7766;51.534;6.722;2023-04-24T03:45:58;12.77;;;9.30;;
15331;SDS011;7766;51.534;6.722;2023-04-24T03:47:00;12.90;;;9.13;;
15331;SDS011;7766;51.534;6.722;2023-04-24T03:48:01;17.53;;;9.67;;
15331;SDS011;7766;51.534;6.722;2023-04-24T03:49:02;13.40;;;9.30;;
15331;SDS011;7766;51.534;6.722;2023-04-24T03:50:03;12.83;;;9.40;;
15331;SDS011;7766;51.534;6.722;2023-04-24T03:51:04;18.47;;;9.03;;
15331;SDS011;7766;51.534;6.722;2023-04-24T03:52:06;12.13;;;8.73;;
15331;SDS011;7766;51.534;6.722;2023-04-24T03:53:07;12.80;;;9.13;;
15331;SDS011;7766;51.534;6.722;2023-04-24T03:54:08;16.57;;;9.27;;
15331;SDS011;7766;51.534;6.722;2023-04-24T03:55:09;13.00;;;8.73;;
15331;SDS011;7766;51.534;6.722;2023-04-24T03:56:12;16.43;;;9.67;;
15331;SDS011;7766;51.534;6.722;2023-04-24T03:57:13;15.37;;;10.70;;
15331;SDS011;7766;51.534;6.722;2023-04-24T03:58:14;16.00;;;9.37;;
15331;SDS011;7766;51.534;6.722;2023-04-24T03:59:15;11.23;;;8.97;;
15331;SDS011;7766;51.534;6.722;2023-04-24T04:00:16;11.13;;;8.90;;
15331;SDS011;7766;51.534;6.722;2023-04-24T04:01:18;13.10;;;9.77;;
15331;SDS011;7766;51.534;6.722;2023-04-24T04:02:20;13.07;;;9.57;;
15331;SDS011;7766;51.534;6.722;2023-04-24T04:03:21;13.20;;;9.33;;
15331;SDS011;7766;51.534;6.722;2023-04-24T04:04:22;16.70;;;9.50;;
15331;SDS011;7766;51.534;6.722;2023-04-24T04:05:23;10.87;;;8.70;;
15331;SDS011;7766;51.534;6.722;2023-04-24T04:06:24;14.83;;;8.80;;
15331;SDS011;7766;51.534;6.722;2023-04-24T04:07:26;12.90;;;9.27;;
15331;SDS011;7766;51.534;6.722;2023-04-24T04:08:29;13.03;;;8.13;;
15331;SDS011;7766;51.534;6.722;2023-04-24T04:09:30;13.10;;;8.80;;
15331;SDS011;7766;51.534;6.722;2023-04-24T04:10:32;13.43;;;9.20;;
15331;SDS011;7766;51.534;6.722;2023-04-24T04:11:33;20.73;;;9.83;;
15331;SDS011;7766;51.534;6.722;2023-04-24T04:12:35;14.53;;;8.67;;
15331;SDS011;7766;51.534;6.722;2023-04-24T04:13:36;13.03;;;8.40;;
15331;SDS011;7766;51.534;6.722;2023-04-24T04:14:37;15.43;;;9.13;;
15331;SDS011;7766;51.534;6.722;2023-04-24T04:15:38;12.37;;;8.37;;
15331;SDS011;7766;51.534;6.722;2023-04-24T04:16:39;18.30;;;9.07;;
15331;SDS011;7766;51.534;6.722;2023-04-24T04:17:40;14.40;;;9.57;;
15331;SDS011;7766;51.534;6.722;2023-04-24T04:18:42;11.87;;;8.27;;
15331;SDS011;7766;51.534;6.722;2023-04-24T04:19:43;10.17;;;8.70;;
15331;SDS011;7766;51.534;6.722;2023-04-24T04:20:44;11.37;;;8.47;;
15331;SDS011;7766;51.534;6.722;2023-04-24T04:21:45;11.67;;;8.60;;
15331;SDS011;7766;51.534;6.722;2023-04-24T04:22:50;12.33;;;8.40;;
15331;SDS011;7766;51.534;6.722;2023-04-24T04:23:51;14.57;;;9.20;;
15331;SDS011;7766;51.534;6.722;2023-04-24T04:24:52;19.23;;;9.30;;
15331;SDS011;7766;51.534;6.722;2023-04-24T04:25:53;13.77;;;8.53;;
15331;SDS011;7766;51.534;6.722;2023-04-24T04:26:54;14.23;;;8.63;;
15331;SDS011;7766;51.534;6.722;2023-04-24T04:27:58;11.30;;;8.90;;
15331;SDS011;7766;51.534;6.722;2023-04-24T04:28:59;12.50;;;7.90;;
15331;SDS011;7766;51.534;6.722;2023-04-24T04:30:01;13.03;;;8.13;;
15331;SDS011;7766;51.534;6.722;2023-04-24T04:31:04;7.47;;;5.70;;
15331;SDS011;7766;51.534;6.722;2023-04-24T04:32:07;11.37;;;7.37;;
15331;SDS011;7766;51.534;6.722;2023-04-24T04:33:08;14.00;;;8.27;;
15331;SDS011;7766;51.534;6.722;2023-04-24T04:34:10;11.03;;;8.43;;
15331;SDS011;7766;51.534;6.722;2023-04-24T04:35:12;12.30;;;7.60;;
15331;SDS011;7766;51.534;6.722;2023-04-24T04:36:13;11.17;;;8.53;;
15331;SDS011;7766;51.534;6.722;2023-04-24T04:37:14;11.93;;;7.97;;
15331;SDS011;7766;51.534;6.722;2023-04-24T04:38:15;14.60;;;8.60;;
15331;SDS011;7766;51.534;6.722;2023-04-24T04:39:16;11.30;;;8.20;;
15331;SDS011;7766;51.534;6.722;2023-04-24T04:40:18;11.80;;;8.40;;
15331;SDS011;7766;51.534;6.722;2023-04-24T04:41:19;12.07;;;8.50;;
15331;SDS011;7766;51.534;6.722;2023-04-24T04:42:20;15.80;;;8.80;;
15331;SDS011;7766;51.534;6.722;2023-04-24T04:43:21;13.90;;;8.70;;
15331;SDS011;7766;51.534;6.722;2023-04-24T04:44:22;13.13;;;8.47;;
15331;SDS011;7766;51.534;6.722;2023-04-24T04:45:23;13.47;;;8.37;;
15331;SDS011;7766;51.534;6.722;2023-04-24T04:46:24;13.27;;;7.83;;
15331;SDS011;7766;51.534;6.722;2023-04-24T04:47:26;11.53;;;8.07;;
15331;SDS011;7766;51.534;6.722;2023-04-24T04:48:28;12.17;;;6.83;;
15331;SDS011;7766;51.534;6.722;2023-04-24T04:49:31;10.70;;;7.93;;
15331;SDS011;7766;51.534;6.722;2023-04-24T04:50:33;15.13;;;8.50;;
15331;SDS011;7766;51.534;6.722;2023-04-24T04:51:34;9.77;;;7.10;;
15331;SDS011;7766;51.534;6.722;2023-04-24T04:52:35;12.70;;;8.47;;
15331;SDS011;7766;51.534;6.722;2023-04-24T04:53:36;12.67;;;8.40;;
15331;SDS011;7766;51.534;6.722;2023-04-24T04:54:37;15.17;;;8.03;;
15331;SDS011;7766;51.534;6.722;2023-04-24T04:55:38;13.40;;;7.33;;
15331;SDS011;7766;51.534;6.722;2023-04-24T04:56:40;9.33;;;7.30;;
15331;SDS011;7766;51.534;6.722;2023-04-24T04:57:41;9.80;;;7.87;;
15331;SDS011;7766;51.534;6.722;2023-04-24T04:58:42;8.13;;;5.70;;
15331;SDS011;7766;51.534;6.722;2023-04-24T04:59:43;11.17;;;7.80;;
15331;SDS011;7766;51.534;6.722;2023-04-24T05:00:44;13.33;;;8.47;;
15331;SDS011;7766;51.534;6.722;2023-04-24T05:01:46;17.50;;;8.70;;
15331;SDS011;7766;51.534;6.722;2023-04-24T05:02:47;10.80;;;7.70;;
15331;SDS011;7766;51.534;6.722;2023-04-24T05:03:48;12.20;;;8.00;;
15331;SDS011;7766;51.534;6.722;2023-04-24T05:04:49;10.93;;;7.23;;
15331;SDS011;7766;51.534;6.722;2023-04-24T05:05:50;12.10;;;7.80;;
15331;SDS011;7766;51.534;6.722;2023-04-24T05:06:51;13.03;;;8.17;;
15331;SDS011;7766;51.534;6.722;2023-04-24T05:07:52;11.50;;;7.77;;
15331;SDS011;7766;51.534;6.722;2023-04-24T05:08:53;9.70;;;8.10;;
15331;SDS011;7766;51.534;6.722;2023-04-24T05:09:57;12.47;;;8.13;;
15331;SDS011;7766;51.534;6.722;2023-04-24T05:10:58;8.30;;;6.97;;
15331;SDS011;7766;51.534;6.722;2023-04-24T05:11:59;10.03;;;7.27;;
15331;SDS011;7766;51.534;6.722;2023-04-24T05:13:00;9.07;;;6.87;;
15331;SDS011;7766;51.534;6.722;2023-04-24T05:14:01;12.00;;;6.90;;
15331;SDS011;7766;51.534;6.722;2023-04-24T05:15:02;9.20;;;6.57;;
15331;SDS011;7766;51.534;6.722;2023-04-24T05:16:04;8.27;;;7.13;;
15331;SDS011;7766;51.534;6.722;2023-04-24T05:17:05;8.50;;;6.93;;
15331;SDS011;7766;51.534;6.722;2023-04-24T05:18:06;8.00;;;6.53;;
15331;SDS011;7766;51.534;6.722;2023-04-24T05:19:07;8.27;;;6.13;;
15331;SDS011;7766;51.534;6.722;2023-04-24T05:20:08;9.47;;;6.50;;
15331;SDS011;7766;51.534;6.722;2023-04-24T05:21:10;11.40;;;7.17;;
15331;SDS011;7766;51.534;6.722;2023-04-24T05:22:11;8.93;;;6.60;;
15331;SDS011;7766;51.534;6.722;2023-04-24T05:23:12;9.43;;;6.27;;
15331;SDS011;7766;51.534;6.722;2023-04-24T05:24:13;9.83;;;6.63;;
15331;SDS011;7766;51.534;6.722;2023-04-24T05:25:14;9.97;;;5.93;;
15331;SDS011;7766;51.534;6.722;2023-04-24T05:26:15;8.47;;;6.23;;
15331;SDS011;7766;51.534;6.722;2023-04-24T05:27:17;8.63;;;5.97;;
15331;SDS011;7766;51.534;6.722;2023-04-24T05:28:18;8.70;;;5.70;;
15331;SDS011;7766;51.534;6.722;2023-04-24T05:29:19;9.33;;;5.47;;
15331;SDS011;7766;51.534;6.722;2023-04-24T05:30:21;9.23;;;5.30;;
15331;SDS011;7766;51.534;6.722;2023-04-24T05:31:22;9.63;;;6.53;;
15331;SDS011;7766;51.534;6.722;2023-04-24T05:32:23;7.30;;;6.10;;
15331;SDS011;7766;51.534;6.722;2023-04-24T05:33:24;6.93;;;5.50;;
15331;SDS011;7766;51.534;6.722;2023-04-24T05:34:25;7.47;;;5.83;;
15331;SDS011;7766;51.534;6.722;2023-04-24T05:35:26;11.13;;;6.90;;
15331;SDS011;7766;51.534;6.722;2023-04-24T05:36:27;11.30;;;5.83;;
15331;SDS011;7766;51.534;6.722;2023-04-24T05:37:28;8.43;;;6.40;;
15331;SDS011;7766;51.534;6.722;2023-04-24T05:38:29;10.37;;;6.20;;
15331;SDS011;7766;51.534;6.722;2023-04-24T05:39:31;7.27;;;5.77;;
15331;SDS011;7766;51.534;6.722;2023-04-24T05:40:31;7.13;;;5.70;;
15331;SDS011;7766;51.534;6.722;2023-04-24T05:41:33;9.10;;;5.67;;
15331;SDS011;7766;51.534;6.722;2023-04-24T05:42:34;7.30;;;5.97;;
15331;SDS011;7766;51.534;6.722;2023-04-24T05:43:35;7.57;;;5.93;;
15331;SDS011;7766;51.534;6.722;2023-04-24T05:44:36;9.27;;;6.37;;
15331;SDS011;7766;51.534;6.722;2023-04-24T05:45:37;8.97;;;6.00;;
15331;SDS011;7766;51.534;6.722;2023-04-24T05:46:38;7.77;;;6.40;;
15331;SDS011;7766;51.534;6.722;2023-04-24T05:47:39;7.63;;;5.40;;
15331;SDS011;7766;51.534;6.722;2023-04-24T05:48:40;7.47;;;5.83;;
15331;SDS011;7766;51.534;6.722;2023-04-24T05:49:41;9.47;;;6.53;;
15331;SDS011;7766;51.534;6.722;2023-04-24T05:50:42;7.63;;;6.37;;
15331;SDS011;7766;51.534;6.722;2023-04-24T05:51:43;4.67;;;4.27;;
15331;SDS011;7766;51.534;6.722;2023-04-24T05:52:44;9.90;;;6.77;;
15331;SDS011;7766;51.534;6.722;2023-04-24T05:53:46;9.03;;;5.90;;
15331;SDS011;7766;51.534;6.722;2023-04-24T05:54:47;9.63;;;7.03;;
15331;SDS011;7766;51.534;6.722;2023-04-24T05:55:48;7.63;;;6.83;;
15331;SDS011;7766;51.534;6.722;2023-04-24T05:56:49;8.33;;;6.90;;
15331;SDS011;7766;51.534;6.722;2023-04-24T05:57:51;9.63;;;6.33;;
15331;SDS011;7766;51.534;6.722;2023-04-24T05:58:52;9.37;;;7.23;;
15331;SDS011;7766;51.534;6.722;2023-04-24T05:59:53;11.23;;;6.50;;
15331;SDS011;7766;51.534;6.722;2023-04-24T06:00:54;8.50;;;7.13;;
15331;SDS011;7766;51.534;6.722;2023-04-24T06:01:55;8.43;;;6.80;;
15331;SDS011;7766;51.534;6.722;2023-04-24T06:02:56;9.67;;;7.33;;
15331;SDS011;7766;51.534;6.722;2023-04-24T06:03:57;8.93;;;7.20;;
15331;SDS011;7766;51.534;6.722;2023-04-24T06:04:58;9.47;;;7.40;;
15331;SDS011;7766;51.534;6.722;2023-04-24T06:05:59;10.47;;;7.50;;
15331;SDS011;7766;51.534;6.722;2023-04-24T06:07:00;11.73;;;8.00;;
15331;SDS011;7766;51.534;6.722;2023-04-24T06:08:02;6.87;;;6.17;;
15331;SDS011;7766;51.534;6.722;2023-04-24T06:09:04;10.57;;;7.17;;
15331;SDS011;7766;51.534;6.722;2023-04-24T06:10:05;8.10;;;6.97;;
15331;SDS011;7766;51.534;6.722;2023-04-24T06:11:06;8.37;;;7.20;;
15331;SDS011;7766;51.534;6.722;2023-04-24T06:12:07;9.63;;;6.40;;
15331;SDS011;7766;51.534;6.722;2023-04-24T06:13:08;9.37;;;7.50;;